createdAt,value
2023-05-26T04:07:47.301Z,24.67
2023-05-26T04:10:15.001Z,25.92
2023-05-26T04:12:44.484Z,24.52
2023-05-26T04:15:12.076Z,20.52
2023-05-26T04:17:39.700Z,26.23
2023-05-26T04:20:11.473Z,24.13
2023-05-26T04:22:39.777Z,23.23
2023-05-26T04:25:11.237Z,23.23
2023-05-26T04:27:57.562Z,21.33
2023-05-26T04:30:40.436Z,24.40
2023-05-26T04:33:26.710Z,24.23
2023-05-26T04:36:25.168Z,24.67
2023-05-26T04:38:52.866Z,24.15
2023-05-26T04:41:20.549Z,25.42
2023-05-26T04:43:48.358Z,24.08
2023-05-26T04:46:16.545Z,26.92
2023-05-26T04:48:44.068Z,19.55
2023-05-26T04:51:11.410Z,28.10
2023-05-26T04:53:38.821Z,23.10
2023-05-26T04:56:08.588Z,23.65
2023-05-26T04:58:41.729Z,21.52
2023-05-26T05:01:11.243Z,25.60
2023-05-26T05:03:52.164Z,20.95
2023-05-26T05:06:28.555Z,25.00
2023-05-26T05:08:57.115Z,25.30
2023-05-26T05:11:26.897Z,21.42
2023-05-26T05:13:54.266Z,29.80
2023-05-26T05:16:24.816Z,23.10
2023-05-26T05:18:54.237Z,24.80
2023-05-26T05:21:23.715Z,27.60
2023-05-26T05:23:54.516Z,28.70
2023-05-26T05:26:23.683Z,25.83
2023-05-26T05:28:52.143Z,30.70
2023-05-26T05:31:45.829Z,19.88
2023-05-26T05:34:13.346Z,20.48
2023-05-26T05:36:41.481Z,22.55
2023-05-26T05:39:09.877Z,25.10
2023-05-26T05:41:37.689Z,27.23
2023-05-26T05:44:05.663Z,26.67
2023-05-26T05:46:33.598Z,21.40
2023-05-26T05:49:36.576Z,19.55
2023-05-26T05:52:05.813Z,25.40
2023-05-26T05:54:33.221Z,21.40
2023-05-26T05:57:02.093Z,22.02
2023-05-26T05:59:29.590Z,18.67
2023-05-26T06:01:57.000Z,18.85
2023-05-26T06:04:26.696Z,22.77
2023-05-26T06:06:54.656Z,19.50
2023-05-26T06:09:22.383Z,24.13
2023-05-26T06:11:50.981Z,23.55
2023-05-26T06:14:20.924Z,24.85
2023-05-26T06:16:49.289Z,19.25
2023-05-26T06:19:16.905Z,24.40
2023-05-26T06:21:44.681Z,20.92
2023-05-26T06:24:12.958Z,16.33
2023-05-26T06:26:40.438Z,23.02
2023-05-26T06:29:13.080Z,21.20
2023-05-26T06:31:42.948Z,19.35
2023-05-26T06:34:14.968Z,22.08
2023-05-26T06:36:42.914Z,19.45
2023-05-26T06:39:10.406Z,18.15
2023-05-26T06:41:38.273Z,15.65
2023-05-26T06:44:06.173Z,20.70
2023-05-26T06:46:33.966Z,22.02
2023-05-26T06:49:01.311Z,22.98
2023-05-26T06:51:54.465Z,18.92
2023-05-26T06:54:21.973Z,19.30
2023-05-26T06:56:51.111Z,23.92
2023-05-26T06:59:21.012Z,17.77
2023-05-26T07:01:48.876Z,28.33
2023-05-26T07:04:16.259Z,21.08
2023-05-26T07:06:47.863Z,24.98
2023-05-26T07:09:20.905Z,28.55
2023-05-26T07:12:00.128Z,20.15
2023-05-26T07:15:02.893Z,24.15
2023-05-26T07:17:31.758Z,26.17
2023-05-26T07:20:00.255Z,25.23
2023-05-26T07:22:28.588Z,21.20
2023-05-26T07:25:02.067Z,23.02
2023-05-26T07:27:35.450Z,33.10
2023-05-26T07:30:04.021Z,20.73
2023-05-26T07:32:32.835Z,19.52
2023-05-26T07:35:00.349Z,22.25
2023-05-26T07:37:29.671Z,26.23
2023-05-26T07:39:57.271Z,24.40
2023-05-26T07:42:24.853Z,26.52
2023-05-26T07:44:52.214Z,24.23
2023-05-26T07:47:20.493Z,34.10
2023-05-26T07:49:48.152Z,25.17
2023-05-26T07:52:16.197Z,23.42
2023-05-26T07:54:43.546Z,26.00
2023-05-26T07:57:22.044Z,23.92
2023-05-26T07:59:56.688Z,28.92
2023-05-26T08:02:24.776Z,22.90
2023-05-26T08:04:52.664Z,19.33
2023-05-26T08:07:20.522Z,30.63
2023-05-26T08:09:48.370Z,26.52
2023-05-26T08:12:16.197Z,31.95
2023-05-26T08:14:44.601Z,23.75
2023-05-26T08:17:12.180Z,28.80
2023-05-26T08:19:39.555Z,28.45
2023-05-26T08:22:07.110Z,43.25
2023-05-26T08:24:34.890Z,27.00
2023-05-26T08:27:03.002Z,29.10
2023-05-26T08:29:30.402Z,29.92
2023-05-26T08:32:00.883Z,32.95
2023-05-26T08:34:28.883Z,27.65
2023-05-26T08:36:56.321Z,24.90
2023-05-26T08:39:24.087Z,34.90
2023-05-26T08:41:57.715Z,30.27
2023-05-26T08:44:25.605Z,37.10
2023-05-26T08:46:56.748Z,29.35
2023-05-26T08:49:25.348Z,20.75
2023-05-26T08:52:03.427Z,24.23
2023-05-26T08:54:31.275Z,23.00
2023-05-26T08:56:59.866Z,21.38
2023-05-26T08:59:29.596Z,24.63
2023-05-26T09:01:57.840Z,23.92
2023-05-26T09:04:30.981Z,23.92
2023-05-26T09:07:21.661Z,24.77
2023-05-26T09:09:47.382Z,24.33
2023-05-26T09:12:15.393Z,30.58
2023-05-26T09:14:44.651Z,22.23
2023-05-26T09:17:15.293Z,26.98
2023-05-26T09:19:42.894Z,26.60
2023-05-26T09:22:12.184Z,33.97
2023-05-26T09:24:50.906Z,19.35
2023-05-26T09:27:23.534Z,16.88
2023-05-26T09:29:55.695Z,24.52
2023-05-26T09:32:27.906Z,20.75
2023-05-26T09:35:01.683Z,23.88
2023-05-26T09:37:33.809Z,21.77
2023-05-26T09:42:57.458Z,27.92
2023-05-26T09:45:25.238Z,18.40
2023-05-26T09:47:59.158Z,23.33
2023-05-26T09:50:26.834Z,21.05
2023-05-26T09:52:54.425Z,28.80
2023-05-26T09:55:22.069Z,22.30
2023-05-26T09:57:51.236Z,17.33
2023-05-26T10:00:19.355Z,17.98
2023-05-26T10:02:48.538Z,27.20
2023-05-26T10:05:17.649Z,19.40
2023-05-26T10:07:46.489Z,14.05
2023-05-26T10:10:15.383Z,23.08
2023-05-26T10:12:44.026Z,17.80
2023-05-26T10:15:12.089Z,18.52
2023-05-26T10:17:40.484Z,17.23
2023-05-26T10:20:09.559Z,16.73
2023-05-26T10:22:57.894Z,23.10
2023-05-26T10:25:36.938Z,18.10
2023-05-26T10:28:42.025Z,20.80
2023-05-26T10:31:09.395Z,18.27
2023-05-26T10:33:45.458Z,16.65
2023-05-26T10:36:18.583Z,14.65
2023-05-26T10:38:51.549Z,16.45
2023-05-26T10:41:32.859Z,20.27
2023-05-26T10:44:01.890Z,20.55
2023-05-26T10:46:47.429Z,16.90
2023-05-26T10:49:22.999Z,18.38
2023-05-26T10:51:55.968Z,22.38
2023-05-26T10:54:26.301Z,19.77
2023-05-26T10:56:55.053Z,20.30
2023-05-26T10:59:30.787Z,13.90
2023-05-26T11:02:04.562Z,23.58
2023-05-26T11:04:43.739Z,22.73
2023-05-26T11:07:16.490Z,24.42
2023-05-26T11:10:06.479Z,15.40
2023-05-26T11:12:34.927Z,18.42
2023-05-26T11:15:30.783Z,17.83
2023-05-26T11:18:02.829Z,15.05
2023-05-26T11:20:30.764Z,12.18
2023-05-26T11:22:58.548Z,12.43
2023-05-26T11:25:29.414Z,12.52
2023-05-26T11:27:57.197Z,13.25
2023-05-26T11:30:34.798Z,16.15
2023-05-26T11:33:12.043Z,18.15
2023-05-26T11:35:40.490Z,16.33
2023-05-26T11:38:08.072Z,13.60
2023-05-26T11:40:35.718Z,13.50
2023-05-26T11:43:03.352Z,9.63
2023-05-26T11:45:31.156Z,13.07
2023-05-26T11:47:58.910Z,10.15
2023-05-26T11:50:26.363Z,11.63
2023-05-26T11:52:53.754Z,9.77
2023-05-26T11:55:21.299Z,13.38
2023-05-26T11:57:52.252Z,12.10
2023-05-26T12:00:20.438Z,19.02
2023-05-26T12:02:48.744Z,9.50
2023-05-26T12:05:30.356Z,7.65
2023-05-26T12:10:36.983Z,12.10
2023-05-26T12:13:04.999Z,10.68
2023-05-26T12:15:32.895Z,11.98
2023-05-26T12:18:03.786Z,12.88
2023-05-26T12:20:44.100Z,15.43
2023-05-26T12:23:25.900Z,8.27
2023-05-26T12:25:53.916Z,9.23
2023-05-26T12:28:21.269Z,9.10
2023-05-26T12:30:49.929Z,10.57
2023-05-26T12:33:18.557Z,8.88
2023-05-26T12:35:45.978Z,7.93
2023-05-26T12:38:15.049Z,13.40
2023-05-26T12:40:43.067Z,13.00
2023-05-26T12:43:10.795Z,14.00
2023-05-26T12:45:39.263Z,14.20
2023-05-26T12:48:07.898Z,8.57
2023-05-26T12:50:35.385Z,10.32
2023-05-26T12:53:03.390Z,15.23
2023-05-26T12:55:31.533Z,12.00
2023-05-26T12:57:59.288Z,14.07
2023-05-26T13:00:26.567Z,8.05
2023-05-26T13:02:54.142Z,15.43
2023-05-26T13:05:22.673Z,12.65
2023-05-26T13:07:50.859Z,8.38
2023-05-26T13:10:19.201Z,7.13
2023-05-26T13:12:47.747Z,11.88
2023-05-26T13:15:17.379Z,7.03
2023-05-26T13:17:45.306Z,10.07
2023-05-26T13:20:13.274Z,7.82
2023-05-26T13:22:46.047Z,10.57
2023-05-26T13:25:13.875Z,13.27
2023-05-26T13:27:41.757Z,8.45
2023-05-26T13:30:09.372Z,5.82
2023-05-26T13:32:37.742Z,7.97
2023-05-26T13:35:05.596Z,7.63
2023-05-26T13:37:33.498Z,11.98
2023-05-26T13:40:00.995Z,5.78
2023-05-26T13:42:35.291Z,5.47
2023-05-26T13:45:04.971Z,7.68
2023-05-26T13:47:32.627Z,5.95
2023-05-26T13:50:09.334Z,9.32
2023-05-26T13:52:47.721Z,10.75
2023-05-26T13:55:15.689Z,8.68
2023-05-26T13:57:43.465Z,6.85
2023-05-26T14:00:11.907Z,8.82
2023-05-26T14:02:42.492Z,11.40
2023-05-26T14:05:12.069Z,6.75
2023-05-26T14:07:39.940Z,8.63
2023-05-26T14:10:08.247Z,5.80
2023-05-26T14:12:35.862Z,8.35
2023-05-26T14:15:05.643Z,13.60
2023-05-26T14:17:34.074Z,8.48
2023-05-26T14:20:07.733Z,9.38
2023-05-26T14:22:38.548Z,8.57
2023-05-26T14:25:07.183Z,7.40
2023-05-26T14:27:34.993Z,6.70
2023-05-26T14:30:02.467Z,11.70
2023-05-26T14:32:29.897Z,8.05
2023-05-26T14:34:57.751Z,8.65
2023-05-26T14:37:26.785Z,5.32
2023-05-26T14:39:55.540Z,7.20
2023-05-26T14:42:22.943Z,12.10
2023-05-26T14:44:51.863Z,6.35
2023-05-26T14:47:19.940Z,4.68
2023-05-26T14:49:47.748Z,9.38
2023-05-26T14:52:16.398Z,4.30
2023-05-26T14:54:44.452Z,6.82
2023-05-26T14:57:12.323Z,5.40
2023-05-26T14:59:39.885Z,8.75
2023-05-26T15:02:08.254Z,7.55
2023-05-26T15:04:35.939Z,5.25
2023-05-26T15:07:04.605Z,7.13
2023-05-26T15:09:32.760Z,8.48
2023-05-26T15:12:00.654Z,8.27
2023-05-26T15:14:27.951Z,7.32
2023-05-26T15:16:55.335Z,7.95
2023-05-26T15:19:23.121Z,4.55
2023-05-26T15:21:50.644Z,4.68
2023-05-26T15:24:18.860Z,6.55
2023-05-26T15:26:46.746Z,7.43
2023-05-26T15:29:15.597Z,6.60
2023-05-26T15:31:43.485Z,8.15
2023-05-26T15:34:10.832Z,6.60
2023-05-26T15:36:38.625Z,4.10
2023-05-26T15:39:05.910Z,8.10
2023-05-26T15:41:33.826Z,4.13
2023-05-26T15:44:03.697Z,10.70
2023-05-26T15:48:59.410Z,8.10
2023-05-26T15:51:26.829Z,3.65
2023-05-26T15:53:54.196Z,8.80
2023-05-26T15:56:21.609Z,7.47
2023-05-26T15:58:49.367Z,9.95
2023-05-26T16:01:18.458Z,4.82
2023-05-26T16:03:45.840Z,3.25
2023-05-26T16:06:13.898Z,13.70
2023-05-26T16:08:43.081Z,15.63
2023-05-26T16:11:10.571Z,10.15
2023-05-26T16:13:38.725Z,8.05
2023-05-26T16:16:07.251Z,4.38
2023-05-26T16:18:34.712Z,6.35
2023-05-26T16:21:03.051Z,12.50
2023-05-26T16:23:30.714Z,12.35
2023-05-26T16:26:00.361Z,8.43
2023-05-26T16:28:27.904Z,6.18
2023-05-26T16:30:55.675Z,9.10
2023-05-26T16:33:23.811Z,5.18
2023-05-26T16:35:53.468Z,7.28
2023-05-26T16:38:22.418Z,7.88
2023-05-26T16:40:50.700Z,7.05
2023-05-26T16:43:36.018Z,5.07
2023-05-26T16:46:06.373Z,7.05
2023-05-26T16:48:34.016Z,9.90
2023-05-26T16:51:01.345Z,8.02
2023-05-26T16:53:28.825Z,7.85
2023-05-26T16:55:56.349Z,12.07
2023-05-26T16:58:25.165Z,11.00
2023-05-26T17:00:52.584Z,11.48
2023-05-26T17:03:21.313Z,7.18
2023-05-26T17:05:48.800Z,5.55
2023-05-26T17:08:16.167Z,9.63
2023-05-26T17:10:45.423Z,5.20
2023-05-26T17:13:12.729Z,5.47
2023-05-26T17:15:40.171Z,11.15
2023-05-26T17:18:08.294Z,7.65
2023-05-26T17:20:35.987Z,11.38
2023-05-26T17:23:04.449Z,11.82
2023-05-26T17:25:31.803Z,16.88
2023-05-26T17:27:59.158Z,11.88
2023-05-26T17:30:26.859Z,10.50
2023-05-26T17:32:55.296Z,7.70
2023-05-26T17:35:26.116Z,8.60
2023-05-26T17:37:54.102Z,5.72
2023-05-26T17:40:21.674Z,8.20
2023-05-26T17:42:49.923Z,8.40
2023-05-26T17:45:17.694Z,9.15
2023-05-26T17:47:46.035Z,15.25
2023-05-26T17:50:13.773Z,12.95
2023-05-26T17:52:41.564Z,14.95
2023-05-26T17:55:09.135Z,16.55
2023-05-26T17:57:37.358Z,14.98
2023-05-26T18:00:05.533Z,12.23
2023-05-26T18:02:40.443Z,18.42
2023-05-26T18:05:08.100Z,19.52
2023-05-26T18:07:35.408Z,17.98
2023-05-26T18:10:03.415Z,19.85
2023-05-26T18:12:31.261Z,26.20
2023-05-26T18:14:58.567Z,13.93
2023-05-26T18:17:25.917Z,19.88
2023-05-26T18:19:53.873Z,20.27
2023-05-26T18:22:21.651Z,13.43
2023-05-26T18:24:49.121Z,6.72
2023-05-26T18:27:17.430Z,9.00
2023-05-26T18:29:45.253Z,14.85
2023-05-26T18:32:13.479Z,8.02
2023-05-26T18:34:41.345Z,10.05
2023-05-26T18:37:09.165Z,14.15
2023-05-26T18:39:37.482Z,13.32
2023-05-26T18:42:04.846Z,22.70
2023-05-26T18:44:32.655Z,12.98
2023-05-26T18:47:00.608Z,13.45
2023-05-26T18:49:30.888Z,12.15
2023-05-26T18:51:58.982Z,19.83
2023-05-26T18:54:27.389Z,14.88
2023-05-26T18:56:55.288Z,9.20
2023-05-26T18:59:22.575Z,12.82
2023-05-26T19:01:50.395Z,8.45
2023-05-26T19:04:18.224Z,19.35
2023-05-26T19:06:45.580Z,11.57
2023-05-26T19:09:13.309Z,7.88
2023-05-26T19:11:41.885Z,7.03
2023-05-26T19:14:09.358Z,11.98
2023-05-26T19:19:09.769Z,6.47
2023-05-26T19:21:37.812Z,9.93
2023-05-26T19:24:07.273Z,14.65
2023-05-26T19:26:35.370Z,11.00
2023-05-26T19:29:05.106Z,8.55
2023-05-26T19:31:33.545Z,9.13
2023-05-26T19:34:02.297Z,12.05
2023-05-26T19:36:30.778Z,19.98
2023-05-26T19:38:59.314Z,10.15
2023-05-26T19:41:29.138Z,12.90
2023-05-26T19:43:57.050Z,11.82
2023-05-26T19:46:24.417Z,10.05
2023-05-26T19:48:52.020Z,10.85
2023-05-26T19:51:19.716Z,11.85
2023-05-26T19:53:47.455Z,15.45
2023-05-26T19:56:14.872Z,21.33
2023-05-26T19:58:42.349Z,12.35
2023-05-26T20:01:09.758Z,12.80
2023-05-26T20:03:37.170Z,22.50
2023-05-26T20:06:05.469Z,13.40
2023-05-26T20:08:33.958Z,15.75
2023-05-26T20:11:01.902Z,22.65
2023-05-26T20:13:30.621Z,15.63
2023-05-26T20:15:58.345Z,13.65
2023-05-26T20:18:25.789Z,19.85
2023-05-26T20:20:53.750Z,15.05
2023-05-26T20:23:21.591Z,16.00
2023-05-26T20:25:49.857Z,13.45
2023-05-26T20:28:17.582Z,13.23
2023-05-26T20:30:45.582Z,8.13
2023-05-26T20:33:13.585Z,16.08
2023-05-26T20:35:42.142Z,7.60
2023-05-26T20:38:09.918Z,8.13
2023-05-26T20:40:37.427Z,11.45
2023-05-26T20:43:05.481Z,9.90
2023-05-26T20:45:33.673Z,20.02
2023-05-26T20:48:01.177Z,12.15
2023-05-26T20:50:28.598Z,14.13
2023-05-26T20:52:56.466Z,14.18
2023-05-26T20:55:23.943Z,15.40
2023-05-26T20:57:51.310Z,13.60
2023-05-26T21:00:19.454Z,11.40
2023-05-26T21:02:46.884Z,9.60
2023-05-26T21:05:14.760Z,19.10
2023-05-26T21:07:42.876Z,17.90
2023-05-26T21:10:10.953Z,20.23
2023-05-26T21:12:39.295Z,15.00
2023-05-26T21:15:07.567Z,8.50
2023-05-26T21:17:35.722Z,12.88
2023-05-26T21:20:03.962Z,10.75
2023-05-26T21:22:32.227Z,11.85
2023-05-26T21:24:59.719Z,15.15
2023-05-26T21:27:27.041Z,15.88
2023-05-26T21:29:54.322Z,16.23
2023-05-26T21:32:22.706Z,19.17
2023-05-26T21:34:50.809Z,12.35
2023-05-26T21:37:18.335Z,15.38
2023-05-26T21:39:46.248Z,12.18
2023-05-26T21:42:13.800Z,11.27
2023-05-26T21:44:42.079Z,12.38
2023-05-26T21:47:09.460Z,9.50
2023-05-26T21:49:37.038Z,11.90
2023-05-26T21:52:05.300Z,14.00
2023-05-26T21:54:32.629Z,10.45
2023-05-26T21:57:00.027Z,9.95
2023-05-26T21:59:27.988Z,19.17
2023-05-26T22:01:55.978Z,18.08
2023-05-26T22:04:24.029Z,15.60
2023-05-26T22:06:51.862Z,15.27
2023-05-26T22:09:19.712Z,15.35
2023-05-26T22:11:47.764Z,20.75
2023-05-26T22:14:25.229Z,13.95
2023-05-26T22:16:53.642Z,21.70
2023-05-26T22:19:22.158Z,14.15
2023-05-26T22:21:49.782Z,16.20
2023-05-26T22:24:17.642Z,16.80
2023-05-26T22:26:45.404Z,14.40
2023-05-26T22:29:12.871Z,15.55
2023-05-26T22:31:41.596Z,13.30
2023-05-26T22:34:09.026Z,13.38
2023-05-26T22:36:36.862Z,16.30
2023-05-26T22:39:06.458Z,15.32
2023-05-26T22:41:34.898Z,21.85
2023-05-26T22:44:02.326Z,10.50
2023-05-26T22:46:30.992Z,15.15
2023-05-26T22:48:59.475Z,13.43
2023-05-26T22:51:28.629Z,16.63
2023-05-26T22:53:57.435Z,15.50
2023-05-26T22:56:26.311Z,23.00
2023-05-26T22:58:53.686Z,19.80
2023-05-26T23:01:21.929Z,19.77
2023-05-26T23:03:49.429Z,16.95
2023-05-26T23:06:19.540Z,21.02
2023-05-26T23:08:49.150Z,15.60
2023-05-26T23:11:18.530Z,16.42
2023-05-26T23:13:48.482Z,17.88
2023-05-26T23:16:17.071Z,17.35
2023-05-26T23:18:44.550Z,16.17
2023-05-26T23:21:12.638Z,16.85
2023-05-26T23:23:40.086Z,15.88
2023-05-26T23:26:08.474Z,17.48
2023-05-26T23:28:36.090Z,18.45
2023-05-26T23:31:03.531Z,20.42
2023-05-26T23:33:32.018Z,18.17
2023-05-26T23:36:00.480Z,18.92
2023-05-26T23:38:29.963Z,16.58
2023-05-26T23:43:29.371Z,17.08
2023-05-26T23:46:01.575Z,21.17
2023-05-26T23:48:30.692Z,19.25
2023-05-26T23:50:58.448Z,16.95
2023-05-26T23:53:26.139Z,17.75
2023-05-26T23:55:54.157Z,18.25
2023-05-26T23:58:21.797Z,18.27
